Aviation Digital Data Service (ADDS)

Output produced by METARs form (0500 UTC 24 January 2019)
found at http://www.aviationweather.gov/metar/data/
 
Forecast for: GMAD (AL MASSIRA MC , MA)
Text: TAF GMAD 232300Z 2400/2506 06008KT CAVOK
Forecast period: 0000 UTC 24 January 2019 to 0600 UTC 25 January 2019
Forecast type: FROM: standard forecast or significant change
Winds: from the ENE (60 degrees) at 9 MPH (8 knots; 4.1 m/s)
Visibility: 6 or more miles 10+ km)
Ceiling: unknown
Clouds: missing
Weather: NSW  (no significant weather)